This is the latest recevied weather packets stored in our database for station/object OK1HOL-13. If no packets are shown the sender has not sent any weather packets the latest 10 day(s).
| Time | Temp. | Humidity | Pressure | Rain* | Wind** | Luminosity | Snow |
|---|---|---|---|---|---|---|---|
| 1778237169 | 14.44° C | 55% | 1019.2 hPa | - | - | 206 W/m² | - |
| 1778236569 | 15° C | 54% | 1019.2 hPa | - | - | 118 W/m² | - |
| 1778235969 | 14.44° C | 55% | 1019.2 hPa | - | - | 80 W/m² | - |
| 1778235369 | 14.44° C | 55% | 1019.3 hPa | - | - | 130 W/m² | - |
| 1778234769 | 16.11° C | 48% | 1019.4 hPa | - | - | 291 W/m² | - |
| 1778234169 | 16.67° C | 48% | 1019.2 hPa | - | - | 431 W/m² | - |
| 1778233569 | 16.11° C | 48% | 1019.4 hPa | - | - | 423 W/m² | - |
| 1778232969 | 16.67° C | 49% | 1019.4 hPa | - | - | 431 W/m² | - |
| 1778232369 | 14.44° C | 54% | 1019.5 hPa | - | - | 431 W/m² | - |
| 1778231769 | 13.89° C | 57% | 1019.5 hPa | - | - | 129 W/m² | - |
| 1778231169 | 13.89° C | 56% | 1019.5 hPa | - | - | 240 W/m² | - |
| 1778230569 | 13.89° C | 58% | 1019.4 hPa | - | - | 334 W/m² | - |
| 1778229969 | 13.33° C | 61% | 1019.5 hPa | - | - | 112 W/m² | - |
| 1778229369 | 13.33° C | 62% | 1019.4 hPa | - | - | 122 W/m² | - |
| 1778228769 | 13.33° C | 61% | 1019.4 hPa | - | - | 192 W/m² | - |
| 1778228169 | 12.78° C | 64% | 1019.3 hPa | - | - | 148 W/m² | - |
| 1778227569 | 12.22° C | 65% | 1019.3 hPa | - | - | 109 W/m² | - |
| 1778226969 | 11.67° C | 67% | 1019.3 hPa | - | - | 100 W/m² | - |
| 1778226369 | 12.22° C | 65% | 1019.3 hPa | - | - | 80 W/m² | - |
| 1778225769 | 12.22° C | 65% | 1019.2 hPa | - | - | 105 W/m² | - |
| 1778225169 | 11.67° C | 67% | 1019.2 hPa | - | - | 105 W/m² | - |
| 1778224569 | 12.22° C | 64% | 1019.1 hPa | - | - | 89 W/m² | - |
| 1778223969 | 12.22° C | 65% | 1019 hPa | - | - | 94 W/m² | - |
| 1778223369 | 11.67° C | 66% | 1018.8 hPa | - | - | 90 W/m² | - |
| 1778222769 | 11.67° C | 67% | 1018.8 hPa | - | - | 77 W/m² | - |
* Rain since midnight (hover to see other rain measurements)
** Current wind speed in m/s (hover to see current wind gust speed)